Time;durP1;ratioP1;P1;durP2;ratioP2;P2;SDS_P1;SDS_P2;PMS_P1;PMS_P2;Temp;Humidity;BMP_temperature;BMP_pressure;BME280_temperature;BME280_humidity;BME280_pressure;Samples;Min_cycle;Max_cycle;Signal;HPM_P1;HPM_P2
2022/10/14 00:08:25;;;;;;;34.20;17.40;;;;;;;9.34;84.33;100677.90;640481;1302;139902;-81
2022/10/14 00:23:29;;;;;;;44.20;21.10;;;;;;;9.19;84.51;100663.32;640275;1313;139105;-80
2022/10/14 00:38:34;;;;;;;31.20;16.90;;;;;;;9.02;84.67;100651.30;640836;1296;139055;-82
2022/10/14 00:53:40;;;;;;;27.90;15.30;;;;;;;8.82;85.19;100629.76;639373;1313;1192814;-82
2022/10/14 01:09:03;;;;;;;34.00;17.20;;;;;;;8.75;85.42;100628.89;640698;1294;140226;-81
2022/10/14 01:42:34;;;;;;;29.00;14.00;;;;;;;8.70;86.67;100606.77;636265;1303;139071;-81
2022/10/14 01:58:33;;;;;;;;;;;;;;;;;;;;;
2022/10/14 02:15:53;;;;;;;28.60;15.40;;;;;;;8.52;87.11;100596.06;624839;1322;1029005;-81
2022/10/14 02:31:12;;;;;;;25.70;14.80;;;;;;;8.40;88.25;100590.81;634609;1320;139173;-80
2022/10/14 02:46:22;;;;;;;24.80;14.90;;;;;;;8.33;88.94;100581.04;632428;1307;140280;-80
2022/10/14 03:01:29;;;;;;;31.90;16.60;;;;;;;8.32;89.62;100574.66;634337;1307;139273;-81
2022/10/14 03:16:39;;;;;;;29.90;16.60;;;;;;;8.15;89.53;100573.29;635704;1299;139462;-83
2022/10/14 03:31:41;;;;;;;23.60;14.50;;;;;;;8.06;89.21;100563.40;635646;1304;140181;-81
2022/10/14 03:46:59;;;;;;;;;;;;;;;7.96;89.96;100558.20;635909;1298;138156;-81
2022/10/14 04:02:04;;;;;;;36.20;19.90;;;;;;;7.90;91.09;100559.12;635038;1305;125463;-80
2022/10/14 04:36:03;;;;;;;;;;;;;;;;;;;;;
2022/10/14 04:52:57;;;;;;;;;;;;;;;;;;;;;
2022/10/14 05:09:15;;;;;;;53.80;27.30;;;;;;;7.62;93.40;100496.21;630393;1303;140070;-80
2022/10/14 05:24:23;;;;;;;93.10;44.00;;;;;;;7.58;92.97;100496.80;631047;1309;140009;-80
2022/10/14 05:39:52;;;;;;;47.10;21.90;;;;;;;7.72;95.33;100487.78;631327;1316;141302;-81
2022/10/14 05:55:01;;;;;;;38.70;19.20;;;;;;;7.96;96.28;100494.59;638278;1304;140257;-82
2022/10/14 06:10:10;;;;;;;44.20;24.20;;;;;;;8.09;96.25;100503.88;636706;1311;140482;-82
2022/10/14 06:25:14;;;;;;;;;;;;;;;8.42;96.36;100503.19;636274;1302;139883;-82
2022/10/14 06:40:27;;;;;;;43.70;22.50;;;;;;;9.10;95.75;100510.23;637465;1301;126516;-81
2022/10/14 06:55:44;;;;;;;55.90;33.00;;;;;;;9.53;95.02;100509.02;637118;1303;139412;-81
2022/10/14 07:10:55;;;;;;;34.90;19.50;;;;;;;9.45;95.72;100516.02;637631;1296;141315;-81
2022/10/14 07:26:03;;;;;;;210.50;117.80;;;;;;;10.69;94.67;100526.02;636815;1304;139886;-81
2022/10/14 07:41:15;;;;;;;52.60;27.50;;;;;;;11.92;93.53;100511.58;636646;1298;140447;-81
2022/10/14 07:56:18;;;;;;;47.00;24.00;;;;;;;12.63;91.47;100504.66;638717;1305;140402;-81
2022/10/14 08:11:23;;;;;;;55.60;27.40;;;;;;;12.33;91.41;100505.02;636263;1303;141502;-81
2022/10/14 08:26:33;;;;;;;47.50;28.10;;;;;;;12.19;92.75;100511.45;635640;1301;140762;-81
2022/10/14 08:41:45;;;;;;;48.50;27.40;;;;;;;12.50;92.95;100516.88;635812;1298;140460;-81
2022/10/14 08:56:48;;;;;;;52.20;29.50;;;;;;;12.85;93.63;100513.80;635012;1305;139362;-82
2022/10/14 09:11:59;;;;;;;49.30;28.80;;;;;;;13.27;93.94;100497.18;636045;1304;140933;-81
2022/10/14 09:27:22;;;;;;;86.80;38.30;;;;;;;13.84;92.75;100497.33;635871;1303;141899;-81
2022/10/14 09:42:48;;;;;;;51.00;27.40;;;;;;;14.47;92.12;100491.30;634671;1305;138874;-81
2022/10/14 09:58:03;;;;;;;68.20;34.40;;;;;;;15.04;90.96;100484.05;634137;1309;140982;-82
2022/10/14 10:13:20;;;;;;;46.00;25.10;;;;;;;16.02;88.69;100470.05;635415;1304;140071;-81
2022/10/14 10:28:31;;;;;;;46.80;25.80;;;;;;;16.69;85.23;100472.31;635810;1299;139879;-81
2022/10/14 10:43:57;;;;;;;45.20;25.80;;;;;;;17.37;82.34;100462.46;641004;1296;140140;-81
2022/10/14 10:59:20;;;;;;;50.20;27.80;;;;;;;18.06;79.45;100457.05;634552;1297;141197;-81
2022/10/14 11:14:36;;;;;;;39.70;24.10;;;;;;;19.10;76.25;100451.38;636742;1303;139415;-82
2022/10/14 11:29:44;;;;;;;45.10;24.80;;;;;;;19.48;74.10;100435.86;638391;1290;140290;-81
2022/10/14 11:44:57;;;;;;;40.70;23.80;;;;;;;18.88;73.76;100429.83;635831;1304;139458;-81
2022/10/14 12:00:12;;;;;;;49.70;28.00;;;;;;;19.34;72.61;100417.66;634885;1305;138622;-82
2022/10/14 12:15:39;;;;;;;43.90;26.40;;;;;;;19.82;71.14;100398.23;635487;1305;142504;-83
2022/10/14 12:51:24;;;;;;;35.40;21.80;;;;;;;21.43;66.97;100381.02;624188;1333;1018625;-82
2022/10/14 13:06:29;;;;;;;34.40;22.30;;;;;;;21.64;66.11;100379.84;632240;1305;138741;-81
2022/10/14 13:21:34;;;;;;;38.40;23.40;;;;;;;23.62;64.45;100366.38;633018;1308;137786;-82
2022/10/14 13:36:49;;;;;;;30.40;21.10;;;;;;;28.21;55.93;100359.83;632454;1304;138776;-82
2022/10/14 13:52:00;;;;;;;31.30;19.40;;;;;;;29.07;51.96;100359.46;632539;1306;139834;-82
2022/10/14 14:07:05;;;;;;;40.70;22.80;;;;;;;24.75;54.95;100349.37;633639;1304;138561;-82
2022/10/14 14:22:30;;;;;;;48.20;27.50;;;;;;;20.80;62.01;100351.45;633011;1307;138269;-83
2022/10/14 14:37:34;;;;;;;43.50;24.60;;;;;;;19.67;66.35;100338.90;632471;1306;138091;-83
2022/10/14 14:53:02;;;;;;;33.90;21.90;;;;;;;19.25;69.15;100335.97;632368;1301;140156;-82
2022/10/14 15:08:22;;;;;;;34.10;20.50;;;;;;;19.10;71.06;100329.45;632572;1311;137949;-82
2022/10/14 15:23:54;;;;;;;46.70;26.10;;;;;;;19.62;71.71;100330.33;633819;1317;138300;-83
2022/10/14 15:39:01;;;;;;;91.10;50.60;;;;;;;18.87;72.14;100325.45;633148;1311;138926;-82
2022/10/14 15:54:05;;;;;;;46.70;28.20;;;;;;;17.67;74.62;100320.61;632586;1307;138449;-81
2022/10/14 16:09:08;;;;;;;42.80;26.20;;;;;;;16.90;77.46;100314.80;632660;1311;140870;-82
2022/10/14 16:24:18;;;;;;;56.00;31.80;;;;;;;16.29;79.65;100320.14;632541;1314;139312;-82
2022/10/14 16:39:22;;;;;;;153.00;54.30;;;;;;;15.75;81.29;100323.81;633341;1308;139511;-81
2022/10/14 16:54:26;;;;;;;75.30;36.00;;;;;;;15.28;83.71;100314.20;633244;1300;141203;-81
2022/10/14 17:09:30;;;;;;;74.90;38.70;;;;;;;14.89;85.92;100315.69;631293;1317;139995;-81
2022/10/14 17:24:35;;;;;;;72.00;42.00;;;;;;;14.67;87.44;100316.83;636332;1301;140469;-82
2022/10/14 17:39:44;;;;;;;55.20;32.90;;;;;;;14.75;89.17;100318.60;636600;1306;139058;-81
2022/10/14 17:54:48;;;;;;;65.80;40.30;;;;;;;14.79;89.90;100317.84;632735;1306;139557;-81
2022/10/14 18:09:52;;;;;;;76.00;40.40;;;;;;;14.56;91.08;100305.79;633206;1308;141021;-82
2022/10/14 18:24:56;;;;;;;76.90;42.70;;;;;;;14.54;92.49;100302.58;631998;1303;139677;-82
2022/10/14 18:39:59;;;;;;;73.10;42.80;;;;;;;14.62;93.95;100299.44;633472;1311;139716;-81
2022/10/14 18:55:04;;;;;;;62.20;38.30;;;;;;;14.88;96.00;100293.67;633423;1306;140403;-81
2022/10/14 19:10:09;;;;;;;73.10;41.80;;;;;;;14.95;97.61;100291.63;632377;1303;139733;-81
2022/10/14 19:25:15;;;;;;;63.40;35.50;;;;;;;14.89;98.83;100290.66;632025;1306;139947;-81
2022/10/14 19:40:19;;;;;;;73.70;39.80;;;;;;;14.82;99.33;100284.98;632426;1311;140214;-81
2022/10/14 19:55:25;;;;;;;68.60;36.00;;;;;;;14.63;100.00;100283.70;632942;1308;139489;-81
2022/10/14 20:10:30;;;;;;;69.40;38.40;;;;;;;14.49;100.00;100270.79;632789;1308;140999;-81
2022/10/14 20:25:35;;;;;;;68.90;36.60;;;;;;;14.29;100.00;100261.90;634150;1312;139501;-83
2022/10/14 20:40:38;;;;;;;65.40;35.80;;;;;;;14.07;100.00;100265.55;632576;1307;141022;-81
2022/10/14 20:55:42;;;;;;;60.50;33.40;;;;;;;13.83;100.00;100254.64;632937;1307;139133;-82
2022/10/14 21:10:45;;;;;;;60.30;33.80;;;;;;;13.57;100.00;100237.80;632355;1322;139982;-80
2022/10/14 21:25:56;;;;;;;73.30;38.00;;;;;;;13.44;100.00;100237.98;632316;1307;139361;-81
2022/10/14 21:41:01;;;;;;;73.30;38.60;;;;;;;13.45;100.00;100243.04;631949;1308;139376;-80
2022/10/14 21:56:05;;;;;;;62.70;32.60;;;;;;;13.38;100.00;100241.06;631843;1315;140460;-81
2022/10/14 22:11:35;;;;;;;61.30;33.60;;;;;;;13.07;100.00;100242.95;634000;1310;140858;-81
2022/10/14 22:26:39;;;;;;;59.10;31.40;;;;;;;12.84;100.00;100235.92;633207;1322;139186;-81
2022/10/14 22:41:43;;;;;;;62.90;33.40;;;;;;;12.69;100.00;100233.48;633018;1314;140450;-81
2022/10/14 22:56:47;;;;;;;79.60;38.30;;;;;;;12.50;100.00;100232.29;638120;1315;140020;-82
2022/10/14 23:11:50;;;;;;;84.90;40.70;;;;;;;12.42;100.00;100227.70;635882;1300;139830;-81
2022/10/14 23:26:53;;;;;;;79.50;40.80;;;;;;;12.36;100.00;100222.86;633167;1308;141472;-81
2022/10/14 23:41:56;;;;;;;94.00;43.40;;;;;;;12.14;100.00;100209.78;631894;1322;140388;-81
2022/10/14 23:56:59;;;;;;;83.90;39.10;;;;;;;12.04;100.00;100206.55;632663;1316;139932;-81
